Time;durP1;ratioP1;P1;durP2;ratioP2;P2;SDS_P1;SDS_P2;PMS_P1;PMS_P2;Temp;Humidity;BMP_temperature;BMP_pressure;BME280_temperature;BME280_humidity;BME280_pressure;Samples;Min_cycle;Max_cycle;Signal;HPM_P1;HPM_P2
2022/05/03 00:02:08;;;;;;;11.10;10.20;;;15.10;73.20;;;;;;4978544;28;20551;-45
2022/05/03 00:05:27;;;;;;;11.10;10.10;;;15.10;73.20;;;;;;4974954;28;20899;-43
2022/05/03 00:08:04;;;;;;;12.27;10.93;;;15.10;73.40;;;;;;4956823;28;20980;-43
2022/05/03 00:10:51;;;;;;;10.90;9.90;;;15.00;73.40;;;;;;4981809;28;21332;-43
2022/05/03 00:13:28;;;;;;;10.77;9.77;;;15.00;73.40;;;;;;4979284;28;20474;-43
2022/05/03 00:15:57;;;;;;;11.73;10.70;;;15.00;73.50;;;;;;4978968;28;20551;-43
2022/05/03 00:18:24;;;;;;;10.90;9.90;;;14.90;73.40;;;;;;4979356;28;20472;-43
2022/05/03 00:20:51;;;;;;;11.37;10.27;;;14.90;73.70;;;;;;4982476;28;20989;-43
2022/05/03 00:23:19;;;;;;;10.53;9.57;;;14.90;73.90;;;;;;4981971;28;20809;-43
2022/05/03 00:25:47;;;;;;;12.50;11.20;;;14.90;73.80;;;;;;4981156;28;20540;-43
2022/05/03 00:28:14;;;;;;;10.90;9.53;;;14.80;73.70;;;;;;4976834;28;20998;-43
2022/05/03 00:30:42;;;;;;;11.30;10.30;;;14.80;73.80;;;;;;4979164;28;20496;-43
2022/05/03 00:33:09;;;;;;;12.90;11.70;;;14.80;73.80;;;;;;4979094;28;20470;-43
2022/05/03 00:35:37;;;;;;;13.40;11.27;;;14.80;73.90;;;;;;4980114;28;20466;-43
2022/05/03 00:38:04;;;;;;;11.87;10.77;;;14.70;73.70;;;;;;4978157;28;20811;-43
2022/05/03 00:40:33;;;;;;;14.27;12.23;;;14.70;73.90;;;;;;4967233;28;20460;-44
2022/05/03 00:43:24;;;;;;;13.53;12.23;;;14.70;74.00;;;;;;4977316;28;20470;-44
2022/05/03 00:46:02;;;;;;;12.47;11.37;;;14.70;73.70;;;;;;4978014;28;20458;-43
2022/05/03 00:49:04;;;;;;;12.30;11.20;;;14.70;74.00;;;;;;4980615;28;20589;-43
2022/05/03 00:51:37;;;;;;;11.70;10.60;;;14.70;74.20;;;;;;4980161;28;20492;-43
2022/05/03 00:54:06;;;;;;;12.33;11.10;;;14.60;74.30;;;;;;4980004;28;20917;-43
2022/05/03 00:56:57;;;;;;;11.87;10.67;;;14.60;74.50;;;;;;4980236;28;20801;-43
2022/05/03 00:59:46;;;;;;;12.50;11.30;;;14.60;74.50;;;;;;4978251;28;20481;-43
2022/05/03 01:02:17;;;;;;;15.47;12.33;;;14.60;74.30;;;;;;4974727;28;20580;-43
2022/05/03 01:05:07;;;;;;;12.07;10.97;;;14.50;74.20;;;;;;4983238;28;20531;-44
2022/05/03 01:07:46;;;;;;;11.90;10.80;;;14.50;74.50;;;;;;4959699;28;20526;-43
2022/05/03 01:10:28;;;;;;;11.70;10.70;;;14.50;74.50;;;;;;4980872;28;20469;-43
2022/05/03 01:13:16;;;;;;;12.40;11.17;;;14.50;74.60;;;;;;4961889;28;20543;-43
2022/05/03 01:15:46;;;;;;;11.83;10.83;;;14.50;74.50;;;;;;4961970;28;20464;-43
2022/05/03 01:18:26;;;;;;;11.10;10.00;;;14.50;74.40;;;;;;4978332;28;20491;-44
2022/05/03 01:21:05;;;;;;;14.53;11.10;;;14.50;74.30;;;;;;4979579;28;20473;-44
2022/05/03 01:23:56;;;;;;;11.40;10.40;;;14.50;74.30;;;;;;4981463;28;20471;-44
2022/05/03 01:26:43;;;;;;;15.03;10.87;;;14.40;74.30;;;;;;4980881;28;20998;-44
2022/05/03 01:29:24;;;;;;;12.77;10.50;;;14.40;74.40;;;;;;4980297;28;20494;-44
2022/05/03 01:32:06;;;;;;;12.60;10.83;;;14.40;74.30;;;;;;4975779;28;20932;-44
2022/05/03 01:34:34;;;;;;;15.03;11.50;;;14.40;74.40;;;;;;4981332;28;20461;-44
2022/05/03 01:37:46;;;;;;;12.50;11.10;;;14.30;74.70;;;;;;4966201;28;20934;-43
2022/05/03 01:40:38;;;;;;;13.90;9.67;;;14.30;74.70;;;;;;4979271;28;20463;-44
2022/05/03 01:43:33;;;;;;;11.90;9.57;;;14.30;74.70;;;;;;4978961;28;20467;-44
2022/05/03 01:46:05;;;;;;;12.33;11.00;;;14.30;74.60;;;;;;4963397;28;20469;-43
2022/05/03 01:51:44;;;;;;;10.87;9.77;;;14.20;74.20;;;;;;4979262;28;22146;-43
2022/05/03 01:54:31;;;;;;;11.20;10.10;;;14.20;74.40;;;;;;4984383;28;20548;-43
2022/05/03 01:56:58;;;;;;;11.50;10.33;;;14.10;74.80;;;;;;4979942;28;20467;-43
2022/05/03 01:59:25;;;;;;;12.70;11.40;;;14.10;75.00;;;;;;4960351;28;20536;-43
2022/05/03 02:01:55;;;;;;;11.03;9.97;;;14.10;75.00;;;;;;4978393;28;20477;-43
2022/05/03 02:05:06;;;;;;;11.43;10.40;;;14.10;74.80;;;;;;4965857;28;20695;-43
2022/05/03 02:07:52;;;;;;;12.30;11.20;;;14.00;75.10;;;;;;4973477;28;20559;-43
2022/05/03 02:11:11;;;;;;;16.00;12.23;;;14.00;75.30;;;;;;4977491;28;20952;-43
2022/05/03 02:16:47;;;;;;;12.20;11.10;;;14.00;75.80;;;;;;4982147;28;20463;-44
2022/05/03 02:19:28;;;;;;;12.33;11.03;;;14.00;76.10;;;;;;4966519;28;20556;-44
2022/05/03 02:22:20;;;;;;;11.03;10.07;;;14.00;76.20;;;;;;4982424;28;20966;-45
2022/05/03 02:25:07;;;;;;;13.20;11.90;;;14.00;76.20;;;;;;4984564;28;20487;-47
2022/05/03 02:27:36;;;;;;;13.83;11.77;;;14.00;76.10;;;;;;4964739;28;20482;-47
2022/05/03 02:30:04;;;;;;;11.03;9.70;;;14.00;75.80;;;;;;4984319;28;20475;-46
2022/05/03 02:32:35;;;;;;;11.67;10.13;;;13.90;75.80;;;;;;4980327;28;20504;-47
2022/05/03 02:35:08;;;;;;;12.20;11.10;;;13.90;76.10;;;;;;4983314;28;20464;-47
2022/05/03 02:37:46;;;;;;;12.80;10.10;;;13.90;76.30;;;;;;4980439;28;20839;-46
2022/05/03 02:40:18;;;;;;;13.17;11.97;;;13.90;76.50;;;;;;4980579;28;20543;-46
2022/05/03 02:42:45;;;;;;;11.67;10.50;;;13.90;76.50;;;;;;4981114;28;20472;-47
2022/05/03 02:45:14;;;;;;;14.50;11.43;;;13.90;76.40;;;;;;4968643;28;20459;-46
2022/05/03 02:48:02;;;;;;;12.90;11.63;;;13.90;76.20;;;;;;4980044;28;20471;-46
2022/05/03 02:50:53;;;;;;;12.33;10.90;;;13.90;76.00;;;;;;4983093;28;20455;-46
2022/05/03 02:53:34;;;;;;;13.27;11.87;;;13.80;75.90;;;;;;4980203;28;20815;-47
2022/05/03 02:56:22;;;;;;;12.30;11.07;;;13.80;76.10;;;;;;4981370;28;20841;-46
2022/05/03 02:59:00;;;;;;;11.70;10.60;;;13.80;75.90;;;;;;4980819;28;20468;-46
2022/05/03 03:01:48;;;;;;;12.80;10.73;;;13.80;75.80;;;;;;4980381;28;20486;-45
2022/05/03 03:04:33;;;;;;;11.90;10.80;;;13.80;75.90;;;;;;4979393;28;20543;-45
2022/05/03 03:07:03;;;;;;;13.00;11.57;;;13.70;75.90;;;;;;4983176;28;20999;-45
2022/05/03 03:09:44;;;;;;;11.63;10.43;;;13.70;76.10;;;;;;4980728;28;20480;-44
2022/05/03 03:12:19;;;;;;;11.27;10.13;;;13.80;76.30;;;;;;4980454;28;20503;-44
2022/05/03 03:15:00;;;;;;;12.73;11.47;;;13.70;76.50;;;;;;4981431;28;20486;-44
2022/05/03 03:17:29;;;;;;;11.70;10.60;;;13.70;76.50;;;;;;4979064;28;20460;-45
2022/05/03 03:20:10;;;;;;;12.33;11.03;;;13.70;76.60;;;;;;4986559;28;20459;-45
2022/05/03 03:22:42;;;;;;;11.63;10.63;;;13.70;76.70;;;;;;4979738;28;20899;-44
2022/05/03 03:25:12;;;;;;;12.17;11.07;;;13.70;76.80;;;;;;4982181;28;20485;-45
2022/05/03 03:27:41;;;;;;;11.90;10.70;;;13.70;76.70;;;;;;4981609;28;21043;-45
2022/05/03 03:30:10;;;;;;;14.00;12.07;;;13.70;76.90;;;;;;4984299;28;21023;-45
2022/05/03 03:32:40;;;;;;;13.90;11.93;;;13.70;77.00;;;;;;4981242;28;20497;-45
2022/05/03 03:35:08;;;;;;;12.93;11.50;;;13.70;77.00;;;;;;4980943;28;20461;-45
2022/05/03 03:37:35;;;;;;;13.97;12.63;;;13.70;77.20;;;;;;4982425;28;20468;-45
2022/05/03 03:40:03;;;;;;;14.53;13.07;;;13.60;77.20;;;;;;4964778;28;20476;-45
2022/05/03 03:42:30;;;;;;;13.93;12.53;;;13.60;77.20;;;;;;4965698;28;20844;-45
2022/05/03 03:45:02;;;;;;;12.83;11.53;;;13.70;77.30;;;;;;4967143;28;20459;-44
2022/05/03 03:47:30;;;;;;;12.53;10.60;;;13.70;77.50;;;;;;4984293;28;20466;-44
2022/05/03 03:49:58;;;;;;;12.63;11.33;;;13.70;77.60;;;;;;4982510;28;20474;-44
2022/05/03 03:52:26;;;;;;;11.70;10.50;;;13.70;77.80;;;;;;4984140;28;20497;-44
2022/05/03 03:54:54;;;;;;;12.57;11.33;;;13.70;77.80;;;;;;4981004;28;20547;-44
2022/05/03 03:57:28;;;;;;;15.67;12.90;;;13.70;77.90;;;;;;4979776;28;20973;-44
2022/05/03 03:59:55;;;;;;;13.80;11.17;;;13.70;78.00;;;;;;4979908;28;20906;-44
2022/05/03 04:02:23;;;;;;;12.30;11.20;;;13.70;77.80;;;;;;4979874;28;20465;-44
2022/05/03 04:04:52;;;;;;;11.87;10.80;;;13.60;77.90;;;;;;4979374;28;20847;-44
2022/05/03 04:07:19;;;;;;;12.40;11.20;;;13.60;77.90;;;;;;4981728;28;20461;-44
2022/05/03 04:09:46;;;;;;;12.10;10.93;;;13.70;78.00;;;;;;4984992;28;20467;-44
2022/05/03 04:12:14;;;;;;;13.10;11.80;;;13.70;78.00;;;;;;4981942;28;20507;-44
2022/05/03 04:14:41;;;;;;;12.57;11.47;;;13.70;78.10;;;;;;4974697;28;20472;-44
2022/05/03 04:17:08;;;;;;;17.00;13.33;;;13.70;78.10;;;;;;4984513;28;20552;-45
2022/05/03 04:19:35;;;;;;;12.70;11.40;;;13.70;78.10;;;;;;4978785;28;20483;-44
2022/05/03 04:22:12;;;;;;;11.50;10.50;;;13.70;78.00;;;;;;4981819;28;20548;-44
2022/05/03 04:24:40;;;;;;;12.43;11.13;;;13.60;78.00;;;;;;4983842;28;20472;-44
2022/05/03 04:27:07;;;;;;;12.90;11.70;;;13.60;77.90;;;;;;4980611;28;20969;-44
2022/05/03 04:29:34;;;;;;;13.97;12.57;;;13.60;77.80;;;;;;4964349;28;20482;-44
2022/05/03 04:32:01;;;;;;;12.50;11.30;;;13.70;77.90;;;;;;4966855;28;20491;-44
2022/05/03 04:34:28;;;;;;;13.03;11.73;;;13.70;77.80;;;;;;4982251;28;20860;-44
2022/05/03 04:36:57;;;;;;;13.23;10.73;;;13.70;77.90;;;;;;4979120;28;20473;-44
2022/05/03 04:39:23;;;;;;;12.13;11.03;;;13.60;77.90;;;;;;4979019;28;20475;-44
2022/05/03 04:41:50;;;;;;;12.70;11.40;;;13.70;78.00;;;;;;4982629;28;20475;-44
2022/05/03 04:44:17;;;;;;;13.07;11.53;;;13.70;77.90;;;;;;4984200;28;20812;-44
2022/05/03 04:46:44;;;;;;;13.77;12.33;;;13.70;77.80;;;;;;4977327;28;20993;-44
2022/05/03 04:49:10;;;;;;;12.93;11.63;;;13.70;77.80;;;;;;4979110;28;20555;-44
2022/05/03 04:51:37;;;;;;;12.97;11.77;;;13.70;77.80;;;;;;4977651;28;20471;-45
2022/05/03 04:54:04;;;;;;;13.13;11.30;;;13.70;78.00;;;;;;4982031;28;20457;-45
2022/05/03 04:56:32;;;;;;;13.03;11.60;;;13.70;78.00;;;;;;4981137;28;20465;-45
2022/05/03 04:59:01;;;;;;;12.67;11.37;;;13.70;78.10;;;;;;4962348;28;20445;-44
2022/05/03 05:01:28;;;;;;;14.67;11.97;;;13.70;78.30;;;;;;4958629;28;20464;-45
2022/05/03 05:03:56;;;;;;;12.63;11.57;;;13.70;78.40;;;;;;4960685;28;20477;-45
2022/05/03 05:06:23;;;;;;;12.60;11.30;;;13.70;78.40;;;;;;4980238;28;20465;-44
2022/05/03 05:08:49;;;;;;;12.33;11.23;;;13.80;78.40;;;;;;4964421;28;20472;-44
2022/05/03 05:11:16;;;;;;;12.33;11.03;;;13.80;78.50;;;;;;4978822;28;20468;-44
2022/05/03 05:13:43;;;;;;;13.03;11.83;;;13.80;78.60;;;;;;4984725;28;20488;-44
2022/05/03 05:16:09;;;;;;;12.97;11.77;;;13.80;78.60;;;;;;4982900;28;20452;-44
2022/05/03 05:18:36;;;;;;;13.30;12.00;;;13.80;78.50;;;;;;4977652;28;20463;-44
2022/05/03 05:21:03;;;;;;;12.97;11.77;;;13.90;78.30;;;;;;4978105;28;20815;-44
2022/05/03 05:23:30;;;;;;;12.63;11.43;;;13.90;78.30;;;;;;4982798;28;20519;-44
2022/05/03 05:25:57;;;;;;;14.07;12.63;;;13.90;78.40;;;;;;4978931;28;20472;-45
2022/05/03 05:28:27;;;;;;;15.80;11.73;;;13.90;78.40;;;;;;4981351;28;20513;-45
2022/05/03 05:30:54;;;;;;;13.23;11.93;;;13.90;78.40;;;;;;4980314;28;20473;-45
2022/05/03 05:33:21;;;;;;;12.77;11.30;;;13.90;78.50;;;;;;4988519;28;20495;-44
2022/05/03 05:35:49;;;;;;;13.13;11.83;;;14.00;78.40;;;;;;4959419;28;20856;-44
2022/05/03 05:38:17;;;;;;;12.77;11.13;;;14.00;77.90;;;;;;4981022;28;20472;-45
2022/05/03 05:40:46;;;;;;;11.93;10.83;;;14.10;76.80;;;;;;4981336;28;20560;-45
2022/05/03 05:43:13;;;;;;;11.97;10.73;;;14.10;76.50;;;;;;4980579;28;20522;-44
2022/05/03 05:45:41;;;;;;;10.93;9.83;;;14.20;75.90;;;;;;4979501;28;20461;-44
2022/05/03 05:48:12;;;;;;;12.50;11.20;;;14.20;75.80;;;;;;4978938;28;20980;-48
2022/05/03 05:50:40;;;;;;;11.50;10.30;;;14.30;75.90;;;;;;4980644;28;20845;-44
2022/05/03 05:55:52;;;;;;;13.17;10.30;;;14.40;75.50;;;;;;4980241;28;20874;-44
2022/05/03 05:58:19;;;;;;;12.10;10.10;;;14.40;75.30;;;;;;4982815;28;20881;-44
2022/05/03 06:00:46;;;;;;;11.63;10.43;;;14.50;74.90;;;;;;4983767;28;20477;-44
2022/05/03 06:03:14;;;;;;;12.80;10.60;;;14.50;74.70;;;;;;4966097;28;20485;-43
2022/05/03 06:05:41;;;;;;;11.83;10.70;;;14.50;74.70;;;;;;4983992;28;20564;-44
2022/05/03 06:08:09;;;;;;;12.20;10.20;;;14.60;74.40;;;;;;4981153;28;20987;-44
2022/05/03 06:10:36;;;;;;;12.13;10.93;;;14.60;74.00;;;;;;4983061;28;20477;-44
2022/05/03 06:13:03;;;;;;;11.50;10.37;;;14.70;73.40;;;;;;4982193;28;20484;-44
2022/05/03 06:15:30;;;;;;;13.40;9.53;;;14.80;73.40;;;;;;4982444;28;20449;-44
2022/05/03 06:17:57;;;;;;;11.60;10.40;;;14.80;72.90;;;;;;4987776;28;20472;-44
2022/05/03 06:20:23;;;;;;;12.20;10.33;;;14.80;72.60;;;;;;4985837;28;20922;-44
2022/05/03 06:22:50;;;;;;;11.03;9.93;;;14.90;72.20;;;;;;4984177;28;20464;-44
2022/05/03 06:25:17;;;;;;;15.80;10.63;;;15.00;72.00;;;;;;4983871;28;20479;-44
2022/05/03 06:27:44;;;;;;;11.67;10.37;;;15.00;72.20;;;;;;4983615;28;20568;-44
2022/05/03 06:30:11;;;;;;;12.43;9.57;;;15.00;72.10;;;;;;4988824;28;20532;-45
2022/05/03 06:32:39;;;;;;;11.37;10.03;;;15.10;71.90;;;;;;4981394;28;20504;-44
2022/05/03 06:35:07;;;;;;;11.97;10.73;;;15.10;71.60;;;;;;4981065;28;20558;-44
2022/05/03 06:37:37;;;;;;;13.43;10.13;;;15.20;71.60;;;;;;4985904;28;21004;-44
2022/05/03 06:40:09;;;;;;;10.77;9.27;;;15.20;71.50;;;;;;4980893;28;20461;-44
2022/05/03 06:42:37;;;;;;;14.57;10.70;;;15.30;71.40;;;;;;4983323;28;20468;-44
2022/05/03 06:45:09;;;;;;;12.53;11.00;;;15.30;71.40;;;;;;4980367;28;20552;-45
2022/05/03 06:47:42;;;;;;;13.00;11.70;;;15.40;71.40;;;;;;4982483;28;20969;-45
2022/05/03 06:50:10;;;;;;;14.90;11.97;;;15.40;71.40;;;;;;4982655;28;20536;-47
2022/05/03 06:52:36;;;;;;;12.80;11.47;;;15.50;71.40;;;;;;4963672;28;20578;-45
2022/05/03 06:55:03;;;;;;;15.73;12.53;;;15.50;71.40;;;;;;4986318;28;20468;-44
2022/05/03 06:57:31;;;;;;;13.17;11.20;;;15.50;71.40;;;;;;4967243;28;20892;-44
2022/05/03 07:00:02;;;;;;;15.70;12.03;;;15.60;71.40;;;;;;4981783;28;20576;-45
2022/05/03 07:02:31;;;;;;;14.27;12.00;;;15.70;70.40;;;;;;4980688;28;20497;-44
2022/05/03 07:04:59;;;;;;;18.13;11.20;;;15.70;70.20;;;;;;4982527;28;20469;-45
2022/05/03 07:07:27;;;;;;;14.50;12.93;;;15.80;70.10;;;;;;4979037;28;20480;-44
2022/05/03 07:09:54;;;;;;;13.10;11.27;;;15.80;70.60;;;;;;4976514;28;20476;-44
2022/05/03 07:12:20;;;;;;;11.90;10.80;;;15.90;70.00;;;;;;4975269;28;20457;-45
2022/05/03 07:14:47;;;;;;;18.50;11.03;;;15.90;69.60;;;;;;4981290;28;20516;-44
2022/05/03 07:22:45;;;;;;;11.40;9.97;;;16.00;68.70;;;;;;4971918;28;20477;-44
2022/05/03 07:22:50;;;;;;;10.70;9.70;;;16.00;68.90;;;;;;4981217;28;20469;-44
2022/05/03 07:25:17;;;;;;;16.97;10.90;;;16.20;69.10;;;;;;4983676;28;20449;-44
2022/05/03 07:27:51;;;;;;;13.10;11.00;;;16.30;68.90;;;;;;4986653;28;20855;-44
2022/05/03 07:30:18;;;;;;;11.30;10.23;;;16.30;68.70;;;;;;4977768;28;20462;-44
2022/05/03 07:32:45;;;;;;;15.73;10.60;;;16.40;68.70;;;;;;4978131;28;20500;-44
2022/05/03 07:35:13;;;;;;;15.67;14.00;;;16.40;68.60;;;;;;4980659;28;20451;-44
2022/05/03 07:37:40;;;;;;;11.80;10.57;;;16.50;68.20;;;;;;4983408;28;20558;-44
2022/05/03 07:40:09;;;;;;;11.57;9.87;;;16.70;66.60;;;;;;4984418;28;20448;-44
2022/05/03 07:42:36;;;;;;;12.40;10.30;;;16.90;66.30;;;;;;4980467;28;20481;-44
2022/05/03 07:45:04;;;;;;;11.70;8.60;;;17.00;65.50;;;;;;4980794;28;20458;-44
2022/05/03 07:47:30;;;;;;;14.00;9.60;;;17.10;65.30;;;;;;4978542;28;20467;-45
2022/05/03 07:49:57;;;;;;;13.60;9.37;;;17.20;65.20;;;;;;4965106;28;20449;-45
2022/05/03 07:52:24;;;;;;;16.03;10.20;;;17.40;65.50;;;;;;4963612;28;20478;-45
2022/05/03 07:54:51;;;;;;;11.40;9.50;;;17.70;64.50;;;;;;4978881;28;20451;-44
2022/05/03 07:57:17;;;;;;;9.97;9.10;;;17.90;62.80;;;;;;4984348;28;20564;-45
2022/05/03 07:59:44;;;;;;;8.93;8.13;;;18.20;63.70;;;;;;4982080;28;20451;-45
2022/05/03 08:02:11;;;;;;;10.97;8.37;;;18.50;62.90;;;;;;4982399;28;20511;-45
2022/05/03 08:04:39;;;;;;;9.83;8.93;;;18.80;60.60;;;;;;4969986;28;20481;-45
2022/05/03 08:07:06;;;;;;;9.23;8.33;;;19.00;61.50;;;;;;4977128;28;20475;-43
2022/05/03 08:09:34;;;;;;;9.80;7.90;;;19.30;60.20;;;;;;4975594;28;20487;-45
2022/05/03 08:12:02;;;;;;;9.07;8.27;;;19.50;59.20;;;;;;4978552;28;21090;-45
2022/05/03 08:14:30;;;;;;;11.10;8.20;;;19.70;57.60;;;;;;4977572;28;20495;-44
2022/05/03 08:17:00;;;;;;;10.77;7.40;;;19.90;57.80;;;;;;4982402;28;20874;-45
2022/05/03 08:19:27;;;;;;;9.27;7.33;;;20.00;58.10;;;;;;4984827;28;20463;-45
2022/05/03 08:21:56;;;;;;;11.77;7.90;;;20.30;57.70;;;;;;4984719;28;20552;-44
2022/05/03 08:24:24;;;;;;;8.77;7.90;;;20.50;57.30;;;;;;4982362;28;21160;-44
2022/05/03 08:26:51;;;;;;;8.80;7.90;;;20.70;55.90;;;;;;4982854;28;20580;-44
2022/05/03 08:29:19;;;;;;;9.43;7.80;;;20.90;55.30;;;;;;4980869;28;20549;-44
2022/05/03 08:31:46;;;;;;;8.23;7.07;;;21.00;54.60;;;;;;4982208;28;20587;-44
2022/05/03 08:34:14;;;;;;;8.87;8.07;;;21.20;53.50;;;;;;4980072;28;20493;-44
2022/05/03 08:36:40;;;;;;;7.70;6.90;;;21.20;53.50;;;;;;4980838;28;20822;-43
2022/05/03 08:42:01;;;;;;;8.10;7.30;;;21.30;52.20;;;;;;4982163;28;20552;-44
2022/05/03 08:44:33;;;;;;;9.20;7.70;;;21.40;52.50;;;;;;4982087;28;20460;-44
2022/05/03 08:47:02;;;;;;;9.37;8.37;;;21.40;50.70;;;;;;4980286;28;20477;-44
2022/05/03 08:49:53;;;;;;;9.30;7.43;;;21.20;50.90;;;;;;4980312;28;20464;-44
2022/05/03 08:52:22;;;;;;;8.27;7.33;;;21.20;52.20;;;;;;4982363;28;20925;-44
2022/05/03 08:54:52;;;;;;;10.27;8.40;;;21.40;51.70;;;;;;4979755;28;20834;-44
2022/05/03 08:57:25;;;;;;;9.20;8.30;;;21.50;51.30;;;;;;4981911;28;20452;-44
2022/05/03 08:59:53;;;;;;;12.20;8.30;;;21.60;50.20;;;;;;4983021;28;20464;-44
2022/05/03 09:02:20;;;;;;;8.33;7.63;;;21.70;52.10;;;;;;4980476;28;20469;-43
2022/05/03 09:04:47;;;;;;;7.67;6.70;;;21.80;52.20;;;;;;4978988;28;20569;-43
2022/05/03 09:07:22;;;;;;;8.73;8.00;;;21.90;52.00;;;;;;4980392;28;21065;-44
2022/05/03 09:09:50;;;;;;;9.07;8.27;;;22.10;51.20;;;;;;4982111;28;20855;-44
2022/05/03 09:12:31;;;;;;;9.00;8.20;;;22.20;49.90;;;;;;4981003;28;20980;-44
2022/05/03 09:15:00;;;;;;;8.70;7.90;;;22.40;51.00;;;;;;4983113;28;20767;-43
2022/05/03 09:17:46;;;;;;;9.60;8.63;;;22.60;50.50;;;;;;4982706;28;20731;-44
2022/05/03 09:26:20;;;;;;;8.50;7.70;;;23.00;49.90;;;;;;4983248;28;20468;-43
2022/05/03 09:28:58;;;;;;;8.37;7.57;;;23.10;50.50;;;;;;4981713;28;20495;-44
2022/05/03 09:31:33;;;;;;;8.97;8.17;;;23.00;51.20;;;;;;4977519;28;20952;-44
2022/05/03 09:34:03;;;;;;;9.00;8.07;;;23.00;50.30;;;;;;4983118;28;20913;-44
2022/05/03 09:36:44;;;;;;;7.63;6.93;;;23.00;50.00;;;;;;4978976;28;20559;-44
2022/05/03 09:39:46;;;;;;;8.50;7.60;;;22.90;49.60;;;;;;4976809;28;20827;-43
2022/05/03 09:42:19;;;;;;;8.90;8.00;;;22.70;50.10;;;;;;4973586;28;20472;-43
2022/05/03 09:44:57;;;;;;;8.87;7.83;;;22.60;50.00;;;;;;4979474;28;20446;-44
2022/05/03 09:47:27;;;;;;;9.43;7.73;;;22.40;49.00;;;;;;4977147;28;20492;-44
2022/05/03 09:49:54;;;;;;;10.50;7.40;;;22.40;49.60;;;;;;4963798;28;21058;-44
2022/05/03 09:52:27;;;;;;;7.77;6.97;;;22.50;50.30;;;;;;4980663;28;20520;-43
2022/05/03 09:55:09;;;;;;;7.80;7.00;;;22.50;49.40;;;;;;4978767;28;20504;-44
2022/05/03 09:57:41;;;;;;;8.73;7.83;;;22.60;49.50;;;;;;4975735;28;20845;-44
2022/05/03 10:00:10;;;;;;;8.60;7.80;;;22.70;49.60;;;;;;4977798;28;21024;-44
2022/05/03 10:02:40;;;;;;;7.53;6.87;;;22.80;50.10;;;;;;4978296;28;20669;-44
2022/05/03 10:05:12;;;;;;;7.53;6.80;;;22.90;49.40;;;;;;4976836;28;20938;-44
2022/05/03 10:07:43;;;;;;;8.03;7.27;;;23.10;49.10;;;;;;4961562;28;20574;-44
2022/05/03 10:10:12;;;;;;;7.40;6.80;;;23.20;49.00;;;;;;4975081;28;20590;-44
2022/05/03 10:12:41;;;;;;;7.57;6.97;;;23.40;48.40;;;;;;4977059;28;20450;-44
2022/05/03 10:15:09;;;;;;;7.80;6.80;;;23.70;48.10;;;;;;4977070;28;21075;-44
2022/05/03 10:20:40;;;;;;;7.60;7.00;;;23.80;48.50;;;;;;4980006;28;20487;-44
2022/05/03 10:23:19;;;;;;;8.30;7.60;;;23.60;48.70;;;;;;4976316;28;20480;-44
2022/05/03 10:25:46;;;;;;;11.47;7.37;;;23.40;48.70;;;;;;4974551;28;20488;-44
2022/05/03 10:28:13;;;;;;;9.30;7.67;;;23.20;49.10;;;;;;4977590;28;20543;-43
2022/05/03 10:31:05;;;;;;;8.73;7.83;;;23.00;49.00;;;;;;4971760;28;20496;-44
2022/05/03 10:33:32;;;;;;;8.33;7.27;;;23.00;48.70;;;;;;4977153;28;20851;-44
2022/05/03 10:36:00;;;;;;;8.77;7.87;;;23.10;50.00;;;;;;4977699;28;20460;-44
2022/05/03 10:38:43;;;;;;;7.77;7.00;;;23.00;49.20;;;;;;4969010;28;21056;-44
2022/05/03 10:41:11;;;;;;;8.17;7.23;;;23.00;49.50;;;;;;4979668;28;20452;-44
2022/05/03 10:43:39;;;;;;;8.70;7.43;;;23.00;49.80;;;;;;4983812;28;20535;-44
2022/05/03 10:46:18;;;;;;;7.63;6.90;;;23.00;49.50;;;;;;4965123;28;20446;-44
2022/05/03 10:49:04;;;;;;;8.80;7.90;;;23.00;48.50;;;;;;4983347;28;20950;-43
2022/05/03 10:51:31;;;;;;;8.97;8.07;;;23.00;49.30;;;;;;4967390;28;20500;-43
2022/05/03 10:53:59;;;;;;;9.83;7.50;;;23.00;51.00;;;;;;4980771;28;20572;-43
2022/05/03 10:56:26;;;;;;;8.77;7.90;;;23.00;48.60;;;;;;4978164;28;20489;-43
2022/05/03 10:59:14;;;;;;;7.20;6.17;;;23.00;49.00;;;;;;4981231;28;20457;-44
2022/05/03 11:01:56;;;;;;;7.17;6.57;;;22.90;48.30;;;;;;4966065;28;21000;-43
2022/05/03 11:04:24;;;;;;;7.50;6.80;;;22.70;49.00;;;;;;4977874;28;20461;-43
2022/05/03 11:06:51;;;;;;;9.43;7.40;;;22.60;49.30;;;;;;4978097;28;21464;-43
2022/05/03 11:09:44;;;;;;;7.53;6.83;;;22.60;50.00;;;;;;4978924;28;20475;-43
2022/05/03 11:12:11;;;;;;;10.10;9.00;;;22.70;51.80;;;;;;4976473;28;20584;-43
2022/05/03 11:14:45;;;;;;;9.37;8.47;;;22.60;50.50;;;;;;4962479;28;20491;-44
2022/05/03 11:17:12;;;;;;;9.33;8.30;;;22.60;51.50;;;;;;4979635;28;21066;-43
2022/05/03 11:19:53;;;;;;;10.03;8.77;;;22.40;50.90;;;;;;4975258;28;20465;-43
2022/05/03 11:22:23;;;;;;;9.00;8.17;;;22.30;50.90;;;;;;4972656;28;20468;-43
2022/05/03 11:24:52;;;;;;;9.70;8.80;;;22.30;51.10;;;;;;4978662;28;20545;-43
2022/05/03 11:27:20;;;;;;;9.20;8.30;;;22.30;51.20;;;;;;4978166;28;20461;-43
2022/05/03 11:30:03;;;;;;;10.00;9.00;;;22.30;51.30;;;;;;4964779;28;20465;-43
2022/05/03 11:32:37;;;;;;;9.30;8.40;;;22.30;51.40;;;;;;4975783;28;21029;-43
2022/05/03 11:35:11;;;;;;;11.47;9.00;;;22.30;51.00;;;;;;4978289;28;20492;-43
2022/05/03 11:37:54;;;;;;;9.70;8.40;;;22.30;51.80;;;;;;4979369;28;20869;-43
2022/05/03 11:40:26;;;;;;;13.57;8.60;;;22.40;51.00;;;;;;4977388;28;20446;-43
2022/05/03 11:42:53;;;;;;;10.30;9.20;;;22.40;51.10;;;;;;4978762;28;20453;-43
2022/05/03 11:45:20;;;;;;;9.47;8.47;;;22.50;50.70;;;;;;4977225;28;20982;-43
2022/05/03 11:47:50;;;;;;;10.33;8.37;;;22.50;50.70;;;;;;4977002;28;20465;-43
2022/05/03 11:56:05;;;;;;;9.70;8.80;;;22.50;51.00;;;;;;4976293;28;20970;-43
2022/05/03 11:58:34;;;;;;;9.27;8.53;;;22.60;51.20;;;;;;4978335;28;20464;-43
2022/05/03 12:01:09;;;;;;;8.23;7.43;;;22.50;50.70;;;;;;4981284;28;20467;-43
2022/05/03 12:03:51;;;;;;;9.07;7.60;;;22.40;51.50;;;;;;4978949;28;20530;-43
2022/05/03 12:06:18;;;;;;;7.93;7.23;;;22.40;52.90;;;;;;4975818;28;20981;-43
2022/05/03 12:08:47;;;;;;;8.60;7.80;;;22.30;53.00;;;;;;4979984;28;20471;-43
2022/05/03 12:11:20;;;;;;;8.70;7.80;;;22.30;52.40;;;;;;4978975;28;20465;-43
2022/05/03 12:13:47;;;;;;;8.50;7.70;;;22.30;53.10;;;;;;4981027;28;20488;-43
2022/05/03 12:16:16;;;;;;;9.33;7.93;;;22.20;52.50;;;;;;4963503;28;21068;-43
2022/05/03 12:18:49;;;;;;;8.20;7.00;;;22.20;52.60;;;;;;4980780;28;20469;-43
2022/05/03 12:21:21;;;;;;;8.50;7.67;;;22.20;52.30;;;;;;4979064;28;20957;-43
2022/05/03 12:23:50;;;;;;;9.83;7.80;;;22.20;53.30;;;;;;4962977;28;20460;-43
2022/05/03 12:26:17;;;;;;;7.93;7.20;;;22.30;52.90;;;;;;4974239;28;20475;-43
2022/05/03 12:28:54;;;;;;;8.00;7.30;;;22.30;53.70;;;;;;4960905;28;20461;-43
2022/05/03 12:31:23;;;;;;;10.10;7.40;;;22.30;53.10;;;;;;4976524;28;20967;-43
2022/05/03 12:33:53;;;;;;;7.77;7.17;;;22.40;52.20;;;;;;4984725;28;21043;-43
2022/05/03 12:36:40;;;;;;;7.40;6.80;;;22.50;51.60;;;;;;4977223;28;20456;-43
2022/05/03 12:39:20;;;;;;;7.47;6.70;;;22.60;51.20;;;;;;4973815;28;20464;-43
2022/05/03 12:41:57;;;;;;;7.23;6.53;;;22.60;50.80;;;;;;4974988;28;20463;-43
2022/05/03 12:44:24;;;;;;;7.60;6.80;;;22.70;50.30;;;;;;4975801;28;20460;-44
2022/05/03 12:46:52;;;;;;;7.53;6.83;;;22.80;51.00;;;;;;4977133;28;20467;-43
2022/05/03 12:49:19;;;;;;;7.60;6.40;;;22.90;50.90;;;;;;4977153;28;20499;-43
2022/05/03 12:51:47;;;;;;;7.30;6.57;;;22.90;51.40;;;;;;4961748;28;20522;-44
2022/05/03 12:54:14;;;;;;;7.33;6.60;;;22.90;50.40;;;;;;4978284;28;20563;-43
2022/05/03 12:59:29;;;;;;;6.50;5.93;;;22.90;49.70;;;;;;4975926;28;20465;-44
2022/05/03 13:01:57;;;;;;;7.53;6.83;;;22.90;48.60;;;;;;4976761;28;20560;-43
2022/05/03 13:04:26;;;;;;;8.33;6.60;;;22.90;48.30;;;;;;4962866;28;20472;-45
2022/05/03 13:06:53;;;;;;;8.43;6.20;;;22.90;50.10;;;;;;4966305;28;20976;-44
2022/05/03 13:09:21;;;;;;;8.10;6.47;;;22.90;50.20;;;;;;4977998;28;20638;-44
2022/05/03 13:11:55;;;;;;;6.97;5.70;;;23.00;49.80;;;;;;4979029;28;20786;-44
2022/05/03 13:14:21;;;;;;;7.53;6.73;;;23.10;49.90;;;;;;4980622;28;20504;-44
2022/05/03 13:16:49;;;;;;;7.40;6.67;;;23.10;48.30;;;;;;4974780;28;20463;-44
2022/05/03 13:19:16;;;;;;;7.30;6.53;;;23.10;47.50;;;;;;4979862;28;21088;-44
2022/05/03 13:21:44;;;;;;;7.93;6.03;;;23.10;47.60;;;;;;4970976;28;20461;-44
2022/05/03 13:24:12;;;;;;;7.67;7.00;;;23.10;47.80;;;;;;4979396;28;20499;-44
2022/05/03 13:26:40;;;;;;;6.80;6.10;;;23.10;48.10;;;;;;4976045;28;20510;-44
2022/05/03 13:29:10;;;;;;;14.67;6.17;;;23.10;47.10;;;;;;4980483;28;20549;-44
2022/05/03 13:31:38;;;;;;;6.57;6.03;;;23.10;46.90;;;;;;4976210;28;20892;-44
2022/05/03 13:34:07;;;;;;;6.43;5.90;;;23.10;45.90;;;;;;4974326;28;20528;-44